Time;durP1;ratioP1;P1;durP2;ratioP2;P2;SDS_P1;SDS_P2;PMS_P1;PMS_P2;Temp;Humidity;BMP_temperature;BMP_pressure;BME280_temperature;BME280_humidity;BME280_pressure;Samples;Min_cycle;Max_cycle;Signal;HPM_P1;HPM_P2
2021/09/09 00:01:22;;;;;;;9.55;8.50;;;;;;;;;;5114399;28;20043;-59
2021/09/09 00:03:47;;;;;;;9.93;8.93;;;;;;;;;;5114522;27;20019;-60
2021/09/09 00:06:12;;;;;;;10.82;9.02;;;;;;;;;;5113576;28;20547;-60
2021/09/09 00:08:37;;;;;;;11.80;8.63;;;;;;;;;;5111116;28;20023;-59
2021/09/09 00:11:03;;;;;;;9.73;8.63;;;;;;;;;;5114636;28;20103;-60
2021/09/09 00:13:28;;;;;;;9.30;7.95;;;;;;;;;;5114020;28;20035;-60
2021/09/09 00:15:53;;;;;;;9.40;8.43;;;;;;;;;;5114503;28;20339;-59
2021/09/09 00:18:19;;;;;;;9.45;7.22;;;;;;;;;;5114423;28;20080;-58
2021/09/09 00:20:44;;;;;;;8.30;7.45;;;;;;;;;;5114011;28;20072;-59
2021/09/09 00:23:09;;;;;;;8.18;6.72;;;;;;;;;;5112682;28;20027;-59
2021/09/09 00:25:34;;;;;;;9.30;7.55;;;;;;;;;;5111988;28;20043;-59
2021/09/09 00:27:59;;;;;;;7.72;6.78;;;;;;;;;;5114558;28;20019;-59
2021/09/09 00:30:25;;;;;;;7.10;6.40;;;;;;;;;;5114288;28;20020;-59
2021/09/09 00:32:50;;;;;;;6.68;6.07;;;;;;;;;;5113325;28;20402;-59
2021/09/09 00:35:15;;;;;;;7.57;6.50;;;;;;;;;;5113807;28;20099;-59
2021/09/09 00:37:40;;;;;;;8.13;6.90;;;;;;;;;;5113750;28;20466;-59
2021/09/09 00:40:06;;;;;;;8.32;6.70;;;;;;;;;;5112824;28;20055;-59
2021/09/09 00:42:31;;;;;;;8.90;6.90;;;;;;;;;;5109165;28;20072;-59
2021/09/09 00:44:56;;;;;;;7.75;6.95;;;;;;;;;;5113884;28;20031;-59
2021/09/09 00:47:22;;;;;;;9.02;7.38;;;;;;;;;;5113662;28;20512;-59
2021/09/09 00:49:47;;;;;;;7.65;6.95;;;;;;;;;;5113857;28;20024;-60
2021/09/09 00:52:13;;;;;;;7.80;6.95;;;;;;;;;;5113385;28;20015;-59
2021/09/09 00:54:39;;;;;;;9.35;8.20;;;;;;;;;;5113271;28;20110;-58
2021/09/09 00:57:05;;;;;;;9.48;8.48;;;;;;;;;;5113241;28;20032;-59
2021/09/09 00:59:31;;;;;;;11.00;9.23;;;;;;;;;;5112288;28;20024;-59
2021/09/09 01:01:57;;;;;;;13.32;11.93;;;;;;;;;;5108564;28;20020;-59
2021/09/09 01:04:22;;;;;;;13.48;11.77;;;;;;;;;;5112999;28;20448;-59
2021/09/09 01:06:47;;;;;;;10.80;9.70;;;;;;;;;;5113731;28;20529;-59
2021/09/09 01:09:13;;;;;;;18.95;14.13;;;;;;;;;;5112735;28;20030;-59
2021/09/09 01:11:38;;;;;;;13.93;12.45;;;;;;;;;;5092715;28;20020;-59
2021/09/09 01:14:11;;;;;;;14.18;12.68;;;;;;;;;;5094515;28;20023;-60
2021/09/09 01:16:37;;;;;;;13.48;10.18;;;;;;;;;;5113124;28;20015;-59
2021/09/09 01:19:03;;;;;;;15.05;11.23;;;;;;;;;;5094022;28;20038;-60
2021/09/09 01:21:28;;;;;;;13.00;10.10;;;;;;;;;;5112996;28;20027;-59
2021/09/09 01:23:54;;;;;;;11.77;9.98;;;;;;;;;;5112522;28;20028;-59
2021/09/09 01:26:19;;;;;;;14.25;12.57;;;;;;;;;;5113759;28;20066;-59
2021/09/09 01:28:44;;;;;;;17.77;14.57;;;;;;;;;;5113623;28;20051;-59
2021/09/09 01:31:12;;;;;;;15.88;13.55;;;;;;;;;;5112504;28;20015;-59
2021/09/09 01:33:37;;;;;;;12.30;11.00;;;;;;;;;;5112375;28;20039;-59
2021/09/09 01:36:03;;;;;;;12.90;11.30;;;;;;;;;;5112720;28;20028;-59
2021/09/09 01:38:28;;;;;;;15.27;12.48;;;;;;;;;;5109816;28;20028;-59
2021/09/09 01:40:53;;;;;;;12.15;10.93;;;;;;;;;;5094715;28;20462;-59
2021/09/09 01:43:18;;;;;;;15.20;12.63;;;;;;;;;;5110339;28;20040;-59
2021/09/09 01:45:43;;;;;;;16.08;14.10;;;;;;;;;;5112987;28;20019;-58
2021/09/09 01:48:09;;;;;;;16.13;13.15;;;;;;;;;;5112450;28;20477;-59
2021/09/09 01:50:34;;;;;;;12.77;11.35;;;;;;;;;;5112604;28;20019;-58
2021/09/09 01:52:59;;;;;;;14.70;12.45;;;;;;;;;;5111842;28;20023;-58
2021/09/09 01:55:25;;;;;;;13.50;12.07;;;;;;;;;;5111286;28;20020;-59
2021/09/09 01:57:50;;;;;;;13.68;12.35;;;;;;;;;;5112151;28;20019;-59
2021/09/09 02:00:15;;;;;;;13.95;12.55;;;;;;;;;;5112599;28;20030;-59
2021/09/09 02:02:41;;;;;;;14.43;12.65;;;;;;;;;;5106798;28;20363;-59
2021/09/09 02:05:07;;;;;;;12.45;11.15;;;;;;;;;;5112323;28;20373;-59
2021/09/09 02:07:32;;;;;;;13.23;11.00;;;;;;;;;;5112070;28;20023;-59
2021/09/09 02:09:57;;;;;;;12.30;11.10;;;;;;;;;;5106738;28;20036;-59
2021/09/09 02:12:22;;;;;;;13.13;11.45;;;;;;;;;;5109916;28;20050;-59
2021/09/09 02:14:47;;;;;;;11.23;8.65;;;;;;;;;;5112482;28;20119;-59
2021/09/09 02:17:13;;;;;;;12.43;10.88;;;;;;;;;;5112338;28;20404;-59
2021/09/09 02:19:38;;;;;;;11.95;10.57;;;;;;;;;;5111922;28;20028;-59
2021/09/09 02:22:03;;;;;;;11.32;10.23;;;;;;;;;;5111720;28;20024;-59
2021/09/09 02:24:28;;;;;;;11.50;10.32;;;;;;;;;;5111711;28;20031;-59
2021/09/09 02:26:54;;;;;;;9.82;8.32;;;;;;;;;;5107959;28;20486;-59
2021/09/09 02:29:19;;;;;;;8.43;7.55;;;;;;;;;;5111677;28;20520;-57
2021/09/09 02:31:44;;;;;;;10.25;8.02;;;;;;;;;;5111334;28;20087;-58
2021/09/09 02:34:09;;;;;;;9.05;7.20;;;;;;;;;;5111690;28;20050;-59
2021/09/09 02:36:34;;;;;;;11.15;7.18;;;;;;;;;;5112184;28;20042;-59
2021/09/09 02:39:00;;;;;;;8.32;7.03;;;;;;;;;;5111680;28;20472;-58
2021/09/09 02:41:25;;;;;;;7.07;6.38;;;;;;;;;;5111770;28;20019;-59
2021/09/09 02:43:50;;;;;;;8.07;6.78;;;;;;;;;;5107396;28;20032;-59
2021/09/09 02:46:15;;;;;;;7.55;6.85;;;;;;;;;;5111879;28;20666;-59
2021/09/09 02:48:41;;;;;;;8.30;7.10;;;;;;;;;;5112048;28;20012;-59
2021/09/09 02:51:06;;;;;;;7.30;6.45;;;;;;;;;;5111720;28;20078;-60
2021/09/09 02:53:31;;;;;;;7.40;6.60;;;;;;;;;;5111363;28;20032;-60
2021/09/09 02:55:56;;;;;;;8.00;6.93;;;;;;;;;;5111983;28;20028;-60
2021/09/09 02:58:22;;;;;;;9.30;6.85;;;;;;;;;;5112318;28;20027;-60
2021/09/09 03:00:47;;;;;;;7.82;6.97;;;;;;;;;;5106309;28;20042;-60
2021/09/09 03:03:12;;;;;;;7.93;6.70;;;;;;;;;;5111159;28;20027;-59
2021/09/09 03:05:37;;;;;;;8.50;6.18;;;;;;;;;;5111700;28;20016;-59
2021/09/09 03:08:02;;;;;;;7.28;6.57;;;;;;;;;;5110956;28;20039;-60
2021/09/09 03:10:28;;;;;;;7.53;6.72;;;;;;;;;;5111301;28;20099;-59
2021/09/09 03:12:53;;;;;;;8.10;6.28;;;;;;;;;;5111658;28;20038;-59
2021/09/09 03:15:18;;;;;;;7.38;6.68;;;;;;;;;;5112107;28;20384;-60
2021/09/09 03:17:43;;;;;;;7.50;6.80;;;;;;;;;;5100566;28;20232;-60
2021/09/09 03:20:09;;;;;;;7.15;6.45;;;;;;;;;;5104499;28;20019;-59
2021/09/09 03:22:34;;;;;;;7.25;6.15;;;;;;;;;;5110020;28;20093;-60
2021/09/09 03:24:59;;;;;;;7.07;6.38;;;;;;;;;;5110986;28;20107;-59
2021/09/09 03:27:25;;;;;;;8.05;6.68;;;;;;;;;;5111911;28;20024;-59
2021/09/09 03:29:50;;;;;;;6.22;5.63;;;;;;;;;;5111445;28;20042;-60
2021/09/09 03:32:15;;;;;;;6.63;6.00;;;;;;;;;;5112177;28;20412;-59
2021/09/09 03:34:40;;;;;;;6.30;5.70;;;;;;;;;;5115454;28;20044;-59
2021/09/09 03:37:06;;;;;;;6.43;5.32;;;;;;;;;;5116009;27;20040;-60
2021/09/09 03:39:31;;;;;;;7.20;5.88;;;;;;;;;;5113811;28;20023;-58
2021/09/09 03:41:56;;;;;;;8.18;6.43;;;;;;;;;;5110090;28;20032;-60
2021/09/09 03:44:21;;;;;;;7.57;6.78;;;;;;;;;;5115133;28;20063;-59
2021/09/09 03:46:46;;;;;;;8.18;5.47;;;;;;;;;;5114965;28;20444;-59
2021/09/09 03:49:12;;;;;;;7.80;6.85;;;;;;;;;;5114843;28;20019;-59
2021/09/09 03:51:37;;;;;;;8.70;7.15;;;;;;;;;;5096575;28;20045;-59
2021/09/09 03:54:02;;;;;;;9.75;7.07;;;;;;;;;;5114567;28;20102;-59
2021/09/09 03:56:27;;;;;;;8.80;7.10;;;;;;;;;;5114776;28;20435;-59
2021/09/09 03:58:53;;;;;;;9.10;7.10;;;;;;;;;;5109611;28;20015;-60
2021/09/09 04:01:18;;;;;;;9.48;6.90;;;;;;;;;;5114882;28;20087;-59
2021/09/09 04:03:46;;;;;;;7.95;7.15;;;;;;;;;;5114578;28;20023;-59
2021/09/09 04:06:11;;;;;;;8.20;7.35;;;;;;;;;;5114576;28;20023;-59
2021/09/09 04:08:36;;;;;;;9.50;7.30;;;;;;;;;;5114227;28;20030;-59
2021/09/09 04:11:01;;;;;;;7.90;7.07;;;;;;;;;;5114298;28;20359;-59
2021/09/09 04:13:27;;;;;;;8.30;7.50;;;;;;;;;;5114790;28;20112;-59
2021/09/09 04:15:52;;;;;;;8.50;7.53;;;;;;;;;;5114096;28;20110;-59
2021/09/09 04:18:17;;;;;;;9.20;7.55;;;;;;;;;;5109639;28;20031;-59
2021/09/09 04:20:42;;;;;;;8.18;7.38;;;;;;;;;;5113958;28;20028;-59
2021/09/09 04:23:07;;;;;;;8.60;7.22;;;;;;;;;;5113661;28;20135;-59
2021/09/09 04:25:33;;;;;;;7.75;6.43;;;;;;;;;;5114346;28;20019;-59
2021/09/09 04:27:58;;;;;;;6.70;5.68;;;;;;;;;;5114086;28;20023;-59
2021/09/09 04:30:23;;;;;;;7.20;6.10;;;;;;;;;;5113937;28;20023;-60
2021/09/09 04:32:48;;;;;;;6.63;5.88;;;;;;;;;;5114094;28;20104;-59
2021/09/09 04:35:13;;;;;;;6.65;6.03;;;;;;;;;;5112077;28;20107;-59
2021/09/09 04:37:39;;;;;;;7.90;5.82;;;;;;;;;;5095132;28;20024;-58
2021/09/09 04:40:04;;;;;;;6.43;5.60;;;;;;;;;;5106097;28;20023;-61
2021/09/09 04:42:30;;;;;;;7.63;6.18;;;;;;;;;;5112976;28;20030;-58
2021/09/09 04:44:55;;;;;;;6.63;5.53;;;;;;;;;;5113198;28;20028;-59
2021/09/09 04:47:20;;;;;;;5.40;4.90;;;;;;;;;;5113664;28;20016;-58
2021/09/09 04:49:45;;;;;;;6.55;5.32;;;;;;;;;;5112894;28;20020;-58
2021/09/09 04:52:10;;;;;;;6.50;5.18;;;;;;;;;;5111992;28;20034;-58
2021/09/09 04:54:36;;;;;;;6.88;6.15;;;;;;;;;;5109986;28;20023;-59
2021/09/09 04:57:01;;;;;;;7.53;5.38;;;;;;;;;;5113664;28;20099;-57
2021/09/09 04:59:26;;;;;;;8.45;5.80;;;;;;;;;;5112799;28;20469;-59
2021/09/09 05:01:51;;;;;;;7.10;6.22;;;;;;;;;;5113670;28;20024;-60
2021/09/09 05:04:18;;;;;;;6.93;5.82;;;;;;;;;;5113462;28;20032;-60
2021/09/09 05:06:43;;;;;;;8.60;7.13;;;;;;;;;;5113701;28;20462;-59
2021/09/09 05:09:08;;;;;;;9.00;7.53;;;;;;;;;;5112296;28;20068;-59
2021/09/09 05:11:34;;;;;;;9.25;7.32;;;;;;;;;;5108781;28;20044;-60
2021/09/09 05:13:59;;;;;;;9.00;7.63;;;;;;;;;;5112601;28;20012;-58
2021/09/09 05:16:24;;;;;;;11.10;7.65;;;;;;;;;;5113216;28;20373;-60
2021/09/09 05:18:49;;;;;;;9.38;7.00;;;;;;;;;;5112333;28;20068;-60
2021/09/09 05:21:14;;;;;;;9.43;7.13;;;;;;;;;;5112863;28;20504;-60
2021/09/09 05:23:40;;;;;;;10.27;8.35;;;;;;;;;;5111923;28;20461;-60
2021/09/09 05:26:05;;;;;;;11.82;7.63;;;;;;;;;;5112615;28;20020;-59
2021/09/09 05:28:30;;;;;;;13.48;7.13;;;;;;;;;;5106963;28;20023;-59
2021/09/09 05:30:55;;;;;;;8.98;7.22;;;;;;;;;;5107909;28;20020;-60
2021/09/09 05:33:21;;;;;;;12.95;7.95;;;;;;;;;;5111509;28;20043;-59
2021/09/09 05:35:47;;;;;;;9.77;7.13;;;;;;;;;;5111129;28;20457;-60
2021/09/09 05:38:12;;;;;;;10.77;7.32;;;;;;;;;;5111340;28;20405;-60
2021/09/09 05:40:37;;;;;;;16.52;7.75;;;;;;;;;;5103700;28;20171;-60
2021/09/09 05:43:02;;;;;;;10.23;6.85;;;;;;;;;;5111918;28;20458;-60
2021/09/09 05:45:28;;;;;;;11.27;7.53;;;;;;;;;;5111800;28;20541;-61
2021/09/09 05:47:53;;;;;;;11.32;7.95;;;;;;;;;;5112090;28;20019;-61
2021/09/09 05:50:18;;;;;;;9.63;6.53;;;;;;;;;;5109647;28;20034;-61
2021/09/09 05:52:44;;;;;;;8.20;6.28;;;;;;;;;;5111362;28;20012;-61
2021/09/09 05:55:09;;;;;;;12.55;6.65;;;;;;;;;;5111300;28;20019;-61
2021/09/09 05:57:34;;;;;;;13.88;6.88;;;;;;;;;;5111306;28;20049;-61
2021/09/09 06:00:00;;;;;;;11.23;6.45;;;;;;;;;;5110129;28;20032;-61
2021/09/09 06:02:27;;;;;;;8.55;6.22;;;;;;;;;;5112015;28;20020;-61
2021/09/09 06:04:55;;;;;;;8.27;5.93;;;;;;;;;;5114020;27;20091;-61
2021/09/09 06:07:20;;;;;;;11.45;5.72;;;;;;;;;;5111782;27;20064;-61
2021/09/09 06:09:45;;;;;;;8.85;6.15;;;;;;;;;;5111718;28;20023;-60
2021/09/09 06:12:11;;;;;;;11.27;5.68;;;;;;;;;;5111919;28;20019;-61
2021/09/09 06:14:36;;;;;;;9.90;5.30;;;;;;;;;;5110881;28;20023;-61
2021/09/09 06:17:02;;;;;;;7.90;5.20;;;;;;;;;;5111594;28;20028;-59
2021/09/09 06:19:27;;;;;;;7.13;5.05;;;;;;;;;;5111783;28;20043;-60
2021/09/09 06:21:52;;;;;;;7.90;5.30;;;;;;;;;;5112028;28;20023;-60
2021/09/09 06:24:18;;;;;;;7.55;5.10;;;;;;;;;;5099960;28;20024;-59
2021/09/09 06:26:43;;;;;;;5.97;5.35;;;;;;;;;;5111716;28;20044;-60
2021/09/09 06:29:08;;;;;;;7.45;5.35;;;;;;;;;;5111406;28;20028;-60
2021/09/09 06:31:34;;;;;;;5.82;4.35;;;;;;;;;;5112228;28;20015;-60
2021/09/09 06:33:59;;;;;;;6.75;5.18;;;;;;;;;;5110320;28;20506;-59
2021/09/09 06:36:24;;;;;;;7.80;4.95;;;;;;;;;;5111441;28;20095;-61
2021/09/09 06:38:49;;;;;;;14.35;5.50;;;;;;;;;;5111332;28;20149;-59
2021/09/09 06:41:15;;;;;;;8.07;5.22;;;;;;;;;;5111386;28;20447;-60
2021/09/09 06:43:40;;;;;;;8.88;4.88;;;;;;;;;;5111318;28;20120;-60
2021/09/09 06:46:05;;;;;;;6.03;4.35;;;;;;;;;;5107230;28;20216;-60
2021/09/09 06:48:31;;;;;;;7.40;4.55;;;;;;;;;;5111775;28;20087;-60
2021/09/09 06:50:56;;;;;;;4.88;4.15;;;;;;;;;;5111462;28;20029;-59
2021/09/09 06:53:22;;;;;;;7.03;4.35;;;;;;;;;;5109955;28;20492;-60
2021/09/09 06:55:47;;;;;;;6.90;4.78;;;;;;;;;;5111377;28;20027;-60
2021/09/09 06:58:13;;;;;;;8.02;4.13;;;;;;;;;;5111430;28;20037;-60
2021/09/09 07:00:38;;;;;;;8.30;4.80;;;;;;;;;;5109802;28;20508;-60
2021/09/09 07:03:03;;;;;;;6.35;4.28;;;;;;;;;;5110253;28;20031;-60
2021/09/09 07:05:29;;;;;;;4.85;4.15;;;;;;;;;;5111401;28;20016;-60
2021/09/09 07:07:54;;;;;;;7.00;4.75;;;;;;;;;;5113470;28;20423;-60
2021/09/09 07:10:19;;;;;;;5.95;4.30;;;;;;;;;;5115103;28;20021;-60
2021/09/09 07:12:44;;;;;;;7.35;4.43;;;;;;;;;;5113852;28;20041;-60
2021/09/09 07:15:10;;;;;;;6.55;4.07;;;;;;;;;;5115306;28;20026;-60
2021/09/09 07:17:36;;;;;;;6.13;4.13;;;;;;;;;;5115259;28;20016;-60
2021/09/09 07:20:01;;;;;;;7.00;3.90;;;;;;;;;;5115801;28;20027;-60
2021/09/09 07:22:27;;;;;;;5.38;3.95;;;;;;;;;;5115281;28;20020;-60
2021/09/09 07:24:52;;;;;;;8.02;3.92;;;;;;;;;;5114330;28;20039;-60
2021/09/09 07:27:17;;;;;;;5.53;3.88;;;;;;;;;;5114933;28;20498;-60
2021/09/09 07:29:42;;;;;;;7.05;4.07;;;;;;;;;;5115194;28;20031;-60
2021/09/09 07:32:08;;;;;;;5.72;3.70;;;;;;;;;;5115089;28;20104;-60
2021/09/09 07:34:33;;;;;;;5.20;4.18;;;;;;;;;;5114319;28;20036;-60
2021/09/09 07:36:58;;;;;;;5.83;3.70;;;;;;;;;;5114826;28;20363;-60
2021/09/09 07:39:24;;;;;;;4.70;3.53;;;;;;;;;;5114319;28;20273;-60
2021/09/09 07:41:49;;;;;;;7.10;4.05;;;;;;;;;;5096815;28;20345;-60
2021/09/09 07:44:14;;;;;;;4.05;3.67;;;;;;;;;;5114289;28;20027;-59
2021/09/09 07:46:39;;;;;;;11.65;3.75;;;;;;;;;;5114516;28;20091;-59
2021/09/09 07:49:04;;;;;;;5.22;3.63;;;;;;;;;;5114000;28;20427;-61
2021/09/09 07:51:30;;;;;;;6.00;3.88;;;;;;;;;;5114581;28;20015;-59
2021/09/09 07:53:55;;;;;;;11.23;4.05;;;;;;;;;;5113647;28;20030;-60
2021/09/09 07:56:21;;;;;;;6.70;3.78;;;;;;;;;;5114131;28;20575;-61
2021/09/09 07:58:49;;;;;;;6.88;3.47;;;;;;;;;;5113992;28;20031;-61
2021/09/09 08:01:17;;;;;;;6.65;3.38;;;;;;;;;;5113863;28;20019;-60
2021/09/09 08:03:42;;;;;;;4.45;3.60;;;;;;;;;;5114090;28;20054;-60
2021/09/09 08:06:08;;;;;;;6.72;3.80;;;;;;;;;;5114733;28;20438;-61
2021/09/09 08:08:33;;;;;;;7.22;3.85;;;;;;;;;;5113119;28;20015;-60
2021/09/09 08:10:58;;;;;;;4.82;3.33;;;;;;;;;;5114165;28;20084;-61
2021/09/09 08:13:23;;;;;;;4.32;3.38;;;;;;;;;;5114173;28;20035;-61
2021/09/09 08:15:49;;;;;;;8.00;3.27;;;;;;;;;;5114475;28;20023;-61
2021/09/09 08:18:14;;;;;;;4.55;2.85;;;;;;;;;;5113071;28;20301;-60
2021/09/09 08:20:39;;;;;;;5.05;3.30;;;;;;;;;;5113858;28;20508;-60
2021/09/09 08:23:04;;;;;;;5.07;2.97;;;;;;;;;;5113606;28;20054;-60
2021/09/09 08:25:29;;;;;;;5.80;3.30;;;;;;;;;;5083466;28;20262;-61
2021/09/09 08:27:54;;;;;;;4.72;3.70;;;;;;;;;;5099564;28;20273;-61
2021/09/09 08:30:20;;;;;;;5.60;3.13;;;;;;;;;;5099469;28;20018;-59
2021/09/09 08:32:45;;;;;;;4.32;3.08;;;;;;;;;;5112871;28;20262;-60
2021/09/09 08:35:10;;;;;;;3.83;3.10;;;;;;;;;;5113940;28;20084;-61
2021/09/09 08:37:36;;;;;;;4.35;3.53;;;;;;;;;;5114421;28;20257;-60
2021/09/09 08:40:04;;;;;;;5.28;3.30;;;;;;;;;;5112324;28;20070;-60
2021/09/09 08:42:29;;;;;;;4.07;3.08;;;;;;;;;;5113095;28;20110;-60
2021/09/09 08:44:55;;;;;;;3.65;3.22;;;;;;;;;;5112606;28;20169;-60
2021/09/09 08:47:20;;;;;;;5.25;3.80;;;;;;;;;;5113401;28;20031;-61
2021/09/09 08:49:46;;;;;;;4.05;3.20;;;;;;;;;;5113923;28;20020;-60
2021/09/09 08:52:11;;;;;;;8.27;3.92;;;;;;;;;;5113910;28;20354;-60
2021/09/09 08:54:37;;;;;;;4.95;3.25;;;;;;;;;;5112808;28;20381;-60
2021/09/09 08:57:02;;;;;;;4.20;3.05;;;;;;;;;;5093651;28;20047;-61
2021/09/09 08:59:28;;;;;;;5.00;3.30;;;;;;;;;;5101711;28;20445;-60
2021/09/09 09:02:02;;;;;;;7.15;3.70;;;;;;;;;;5113221;28;20034;-61
2021/09/09 09:04:27;;;;;;;5.35;3.05;;;;;;;;;;5113528;28;20095;-61
2021/09/09 09:06:53;;;;;;;5.88;3.10;;;;;;;;;;5113328;28;20047;-60
2021/09/09 09:09:21;;;;;;;4.35;3.30;;;;;;;;;;5112706;28;20023;-60
2021/09/09 09:11:46;;;;;;;3.75;2.70;;;;;;;;;;5113487;28;20106;-60
2021/09/09 09:14:13;;;;;;;3.42;3.13;;;;;;;;;;5112969;28;20135;-60
2021/09/09 09:16:43;;;;;;;5.22;3.45;;;;;;;;;;5112973;28;20100;-60
2021/09/09 09:19:09;;;;;;;5.72;3.08;;;;;;;;;;5112834;28;20135;-60
2021/09/09 09:21:37;;;;;;;3.92;3.13;;;;;;;;;;5111979;28;20098;-61
2021/09/09 09:24:03;;;;;;;4.15;2.88;;;;;;;;;;5111338;28;20024;-60
2021/09/09 09:26:28;;;;;;;3.20;2.88;;;;;;;;;;5112983;28;20113;-60
2021/09/09 09:28:54;;;;;;;5.50;3.03;;;;;;;;;;5095082;28;20128;-60
2021/09/09 09:31:24;;;;;;;3.78;3.22;;;;;;;;;;5112137;28;20023;-59
2021/09/09 09:33:51;;;;;;;5.85;3.53;;;;;;;;;;5108080;28;20047;-59
2021/09/09 09:36:22;;;;;;;5.13;3.08;;;;;;;;;;5111843;28;20107;-59
2021/09/09 09:38:48;;;;;;;4.43;2.85;;;;;;;;;;5112178;28;20152;-59
2021/09/09 09:41:13;;;;;;;5.75;2.92;;;;;;;;;;5112291;28;20028;-59
2021/09/09 09:43:49;;;;;;;2.92;2.72;;;;;;;;;;5104528;28;20038;-59
2021/09/09 09:46:22;;;;;;;6.15;3.13;;;;;;;;;;5112021;28;20046;-59
2021/09/09 09:48:47;;;;;;;5.03;3.00;;;;;;;;;;5112106;28;20007;-60
2021/09/09 09:51:12;;;;;;;4.97;2.87;;;;;;;;;;5111955;28;20522;-60
2021/09/09 09:53:38;;;;;;;4.20;2.80;;;;;;;;;;5110856;28;20277;-59
2021/09/09 09:56:03;;;;;;;4.93;2.80;;;;;;;;;;5094391;28;20250;-59
2021/09/09 09:58:28;;;;;;;3.55;2.58;;;;;;;;;;5111266;28;20257;-59
2021/09/09 10:00:54;;;;;;;3.67;2.85;;;;;;;;;;5112452;28;20028;-59
2021/09/09 10:03:20;;;;;;;4.88;3.03;;;;;;;;;;5111327;28;20112;-59
2021/09/09 10:05:45;;;;;;;3.08;2.80;;;;;;;;;;5102807;28;20024;-61
2021/09/09 10:08:11;;;;;;;3.72;2.83;;;;;;;;;;5091212;28;20411;-60
2021/09/09 10:10:36;;;;;;;4.15;2.95;;;;;;;;;;5073376;28;20359;-59
2021/09/09 10:13:02;;;;;;;3.47;2.80;;;;;;;;;;5111359;28;20020;-60
2021/09/09 10:15:27;;;;;;;3.55;3.25;;;;;;;;;;5112076;28;20034;-59
2021/09/09 10:17:53;;;;;;;5.65;3.20;;;;;;;;;;5111874;28;20032;-59
2021/09/09 10:20:29;;;;;;;2.75;2.53;;;;;;;;;;5111231;28;20019;-59
2021/09/09 10:23:07;;;;;;;3.08;2.85;;;;;;;;;;5104061;28;20059;-59
2021/09/09 10:25:42;;;;;;;3.38;2.80;;;;;;;;;;5110259;28;20111;-59
2021/09/09 10:28:26;;;;;;;5.55;3.17;;;;;;;;;;5107737;28;20047;-59
2021/09/09 10:31:14;;;;;;;2.97;2.77;;;;;;;;;;5111981;27;20027;-60
2021/09/09 10:33:41;;;;;;;4.07;2.65;;;;;;;;;;5102500;28;20293;-60
2021/09/09 10:36:45;;;;;;;4.57;2.47;;;;;;;;;;5109899;28;20024;-60
2021/09/09 10:39:20;;;;;;;3.15;2.45;;;;;;;;;;5041054;28;20032;-61
2021/09/09 10:41:47;;;;;;;2.60;2.40;;;;;;;;;;5031088;28;20558;-60
2021/09/09 10:44:12;;;;;;;4.35;2.75;;;;;;;;;;5041588;28;20042;-59
2021/09/09 10:46:38;;;;;;;3.03;2.72;;;;;;;;;;5044824;28;20059;-60
2021/09/09 10:49:04;;;;;;;3.65;2.90;;;;;;;;;;5047264;28;20104;-60
2021/09/09 10:51:29;;;;;;;4.90;3.60;;;;;;;;;;5055488;28;20452;-60
2021/09/09 10:53:56;;;;;;;3.58;2.92;;;;;;;;;;5047088;28;20078;-60
2021/09/09 10:56:25;;;;;;;4.82;2.70;;;;;;;;;;5054598;28;20067;-59
2021/09/09 10:59:06;;;;;;;2.92;2.63;;;;;;;;;;5053104;28;20033;-59
2021/09/09 11:01:31;;;;;;;3.85;2.88;;;;;;;;;;5055274;28;20033;-60
2021/09/09 11:03:57;;;;;;;4.73;3.27;;;;;;;;;;5054368;28;20047;-60
2021/09/09 11:06:23;;;;;;;3.27;2.50;;;;;;;;;;5051573;28;20116;-60
2021/09/09 11:08:50;;;;;;;2.92;2.80;;;;;;;;;;5056271;28;20729;-61
2021/09/09 11:11:27;;;;;;;2.95;2.67;;;;;;;;;;5117597;28;20015;-60
2021/09/09 11:13:55;;;;;;;4.50;2.78;;;;;;;;;;5116992;28;20019;-59
2021/09/09 11:16:22;;;;;;;4.47;3.22;;;;;;;;;;5117392;28;20032;-60
2021/09/09 11:18:48;;;;;;;2.92;2.35;;;;;;;;;;5100371;28;20386;-60
2021/09/09 11:21:16;;;;;;;3.03;2.55;;;;;;;;;;5118405;28;20053;-60
2021/09/09 11:23:41;;;;;;;4.05;2.55;;;;;;;;;;5116251;27;20036;-60
2021/09/09 11:26:10;;;;;;;4.93;2.77;;;;;;;;;;5117263;28;20541;-60
2021/09/09 11:28:36;;;;;;;3.78;2.38;;;;;;;;;;5117778;28;20103;-61
2021/09/09 11:31:04;;;;;;;3.42;2.15;;;;;;;;;;5117562;28;20513;-60
2021/09/09 11:33:29;;;;;;;3.60;2.70;;;;;;;;;;5117556;28;20147;-61
2021/09/09 11:36:04;;;;;;;2.53;2.37;;;;;;;;;;5115874;27;20024;-60
2021/09/09 11:38:30;;;;;;;4.47;2.22;;;;;;;;;;5116321;28;20031;-60
2021/09/09 11:41:05;;;;;;;2.47;2.28;;;;;;;;;;5117457;28;20046;-60
2021/09/09 11:43:30;;;;;;;2.78;2.00;;;;;;;;;;5117126;28;20069;-61
2021/09/09 11:45:55;;;;;;;3.03;2.30;;;;;;;;;;5116335;28;20100;-60
2021/09/09 11:48:23;;;;;;;3.30;2.03;;;;;;;;;;5116832;27;20026;-61
2021/09/09 11:50:49;;;;;;;3.55;2.10;;;;;;;;;;5112877;28;20046;-60
2021/09/09 11:53:24;;;;;;;2.28;2.08;;;;;;;;;;5105670;28;20415;-60
2021/09/09 11:55:49;;;;;;;2.20;2.10;;;;;;;;;;5111203;28;20019;-60
2021/09/09 11:58:34;;;;;;;3.38;2.20;;;;;;;;;;5111153;28;20474;-60
2021/09/09 12:01:00;;;;;;;2.30;2.10;;;;;;;;;;5114167;28;20064;-60
2021/09/09 12:03:25;;;;;;;2.00;1.90;;;;;;;;;;5109152;27;20055;-60
2021/09/09 12:05:52;;;;;;;1.92;1.83;;;;;;;;;;5109490;28;20065;-60
2021/09/09 12:08:17;;;;;;;3.78;2.17;;;;;;;;;;5114289;28;20197;-60
2021/09/09 12:10:42;;;;;;;4.22;2.00;;;;;;;;;;5112835;28;20024;-60
2021/09/09 12:13:09;;;;;;;2.47;2.00;;;;;;;;;;5114162;28;20026;-60
2021/09/09 12:15:34;;;;;;;2.13;1.73;;;;;;;;;;5107801;28;20048;-60
2021/09/09 12:18:07;;;;;;;2.33;1.80;;;;;;;;;;5113891;28;20108;-61
2021/09/09 12:20:34;;;;;;;3.60;1.90;;;;;;;;;;5104944;28;20031;-60
2021/09/09 12:23:00;;;;;;;2.97;2.00;;;;;;;;;;5117430;27;20114;-61
2021/09/09 12:25:28;;;;;;;2.83;1.92;;;;;;;;;;5113248;28;20027;-60
2021/09/09 12:27:56;;;;;;;2.80;2.10;;;;;;;;;;5114265;28;20019;-60
2021/09/09 12:30:25;;;;;;;2.20;2.10;;;;;;;;;;5113274;28;20016;-61
2021/09/09 12:32:50;;;;;;;3.03;2.03;;;;;;;;;;5113424;28;20021;-60
2021/09/09 12:35:19;;;;;;;2.07;1.97;;;;;;;;;;5113623;28;20489;-61
2021/09/09 12:37:45;;;;;;;3.60;1.98;;;;;;;;;;5113342;28;20273;-60
2021/09/09 12:40:10;;;;;;;2.97;1.80;;;;;;;;;;5112947;28;20023;-60
2021/09/09 12:42:37;;;;;;;2.13;1.85;;;;;;;;;;5112765;28;20463;-60
2021/09/09 12:45:08;;;;;;;3.35;1.77;;;;;;;;;;5112063;28;20028;-60
2021/09/09 12:47:33;;;;;;;3.75;2.28;;;;;;;;;;5111018;28;20018;-60
2021/09/09 12:50:18;;;;;;;2.73;1.80;;;;;;;;;;5113397;28;20091;-60
2021/09/09 12:52:53;;;;;;;1.92;1.73;;;;;;;;;;5110892;28;20107;-61
2021/09/09 12:55:18;;;;;;;2.05;1.95;;;;;;;;;;5091889;28;20382;-60
2021/09/09 12:57:43;;;;;;;5.73;1.70;;;;;;;;;;5113303;28;20054;-60
2021/09/09 13:00:09;;;;;;;2.50;1.63;;;;;;;;;;5095086;28;20024;-61
2021/09/09 13:02:34;;;;;;;3.20;1.70;;;;;;;;;;5112737;28;20019;-60
2021/09/09 13:04:59;;;;;;;2.73;1.73;;;;;;;;;;5112082;28;20145;-60
2021/09/09 13:07:24;;;;;;;3.07;2.07;;;;;;;;;;5112623;28;20019;-59
2021/09/09 13:09:49;;;;;;;2.83;1.67;;;;;;;;;;5112577;28;20023;-59
2021/09/09 13:12:15;;;;;;;2.80;1.73;;;;;;;;;;5112770;28;20378;-60
2021/09/09 13:14:40;;;;;;;2.97;1.80;;;;;;;;;;5112802;28;20032;-59
2021/09/09 13:17:05;;;;;;;2.63;2.17;;;;;;;;;;5112464;28;20023;-59
2021/09/09 13:19:32;;;;;;;2.13;1.83;;;;;;;;;;5112667;28;20382;-60
2021/09/09 13:21:57;;;;;;;2.25;2.03;;;;;;;;;;5112839;28;20098;-60
2021/09/09 13:24:22;;;;;;;2.50;1.83;;;;;;;;;;5127785;27;22090;-60
2021/09/09 13:26:48;;;;;;;3.80;1.80;;;;;;;;;;5112458;28;20102;-60
2021/09/09 13:29:13;;;;;;;3.77;2.20;;;;;;;;;;5113046;28;20030;-59
2021/09/09 13:31:43;;;;;;;2.10;1.33;;;;;;;;;;5113077;28;20020;-60
2021/09/09 13:34:08;;;;;;;2.17;1.70;;;;;;;;;;5112399;28;20494;-59
2021/09/09 13:36:33;;;;;;;2.70;1.70;;;;;;;;;;5112023;28;20054;-59
2021/09/09 13:38:58;;;;;;;2.30;1.77;;;;;;;;;;5111030;28;20027;-59
2021/09/09 13:41:24;;;;;;;1.77;1.47;;;;;;;;;;5112199;28;20015;-59
2021/09/09 13:43:49;;;;;;;2.83;1.73;;;;;;;;;;5111517;28;20030;-59
2021/09/09 13:46:14;;;;;;;3.10;1.83;;;;;;;;;;5112021;28;20016;-59
2021/09/09 13:48:40;;;;;;;2.67;1.80;;;;;;;;;;5112461;28;20020;-59
2021/09/09 13:51:05;;;;;;;2.73;1.73;;;;;;;;;;5112431;28;20518;-60
2021/09/09 13:53:30;;;;;;;2.33;2.10;;;;;;;;;;5111727;28;20020;-59
2021/09/09 13:55:55;;;;;;;2.93;1.80;;;;;;;;;;5112352;28;20016;-59
2021/09/09 13:58:21;;;;;;;4.28;2.45;;;;;;;;;;5111686;28;20016;-60
2021/09/09 14:00:46;;;;;;;2.03;1.85;;;;;;;;;;5112454;28;20023;-60
2021/09/09 14:03:12;;;;;;;1.90;1.80;;;;;;;;;;5111707;28;20065;-60
2021/09/09 14:05:37;;;;;;;2.50;1.60;;;;;;;;;;5112487;28;20011;-59
2021/09/09 14:08:02;;;;;;;1.92;1.65;;;;;;;;;;5111614;28;20273;-59
2021/09/09 14:10:27;;;;;;;2.08;1.50;;;;;;;;;;5111427;28;20089;-59
2021/09/09 14:12:53;;;;;;;2.23;1.80;;;;;;;;;;5112261;28;20019;-59
2021/09/09 14:15:19;;;;;;;2.93;1.60;;;;;;;;;;5111569;28;20028;-61
2021/09/09 14:17:44;;;;;;;2.72;2.10;;;;;;;;;;5111243;28;20095;-60
2021/09/09 14:20:10;;;;;;;2.37;2.07;;;;;;;;;;5110993;28;20012;-60
2021/09/09 14:22:35;;;;;;;3.65;1.85;;;;;;;;;;5103272;27;20089;-60
2021/09/09 14:25:01;;;;;;;2.35;1.80;;;;;;;;;;5091293;28;20028;-60
2021/09/09 14:27:27;;;;;;;2.45;2.25;;;;;;;;;;5109058;28;20023;-60
2021/09/09 14:29:53;;;;;;;2.25;1.83;;;;;;;;;;5111077;28;20023;-60
2021/09/09 14:32:18;;;;;;;1.77;1.67;;;;;;;;;;5102838;28;20027;-60
2021/09/09 14:34:43;;;;;;;2.10;1.95;;;;;;;;;;5110680;28;20070;-60